createdAt,value
2023-04-02T00:06:46.911Z,1.55
2023-04-02T00:09:27.106Z,1.30
2023-04-02T00:18:02.052Z,1.30
2023-04-02T00:20:49.430Z,1.15
2023-04-02T00:23:21.397Z,1.50
2023-04-02T00:25:50.641Z,1.60
2023-04-02T00:28:20.055Z,1.30
2023-04-02T00:33:22.883Z,1.52
2023-04-02T00:35:51.105Z,1.52
2023-04-02T00:38:23.413Z,1.35
2023-04-02T00:40:52.787Z,1.20
2023-04-02T00:43:21.073Z,1.27
2023-04-02T00:45:54.875Z,1.63
2023-04-02T00:48:40.915Z,1.35
2023-04-02T00:51:19.713Z,1.67
2023-04-02T00:53:50.600Z,1.30
2023-04-02T00:56:25.556Z,1.55
2023-04-02T00:58:55.129Z,1.40
2023-04-02T01:01:25.487Z,1.38
2023-04-02T01:03:58.080Z,1.38
2023-04-02T01:06:30.644Z,1.92
2023-04-02T01:09:16.905Z,1.55
2023-04-02T01:12:00.138Z,1.40
2023-04-02T01:14:42.777Z,1.67
2023-04-02T01:17:26.388Z,1.45
2023-04-02T01:20:16.877Z,1.67
2023-04-02T01:22:51.773Z,1.55
2023-04-02T01:25:28.529Z,1.30
2023-04-02T01:28:05.591Z,1.42
2023-04-02T01:30:38.275Z,1.50
2023-04-02T01:33:06.293Z,1.25
2023-04-02T01:35:38.884Z,1.42
2023-04-02T01:38:13.924Z,1.38
2023-04-02T01:40:50.890Z,1.58
2023-04-02T01:43:25.990Z,1.30
2023-04-02T01:45:56.890Z,1.75
2023-04-02T01:48:27.550Z,1.48
2023-04-02T01:50:57.563Z,1.30
2023-04-02T01:53:27.742Z,1.63
2023-04-02T01:55:57.035Z,1.75
2023-04-02T01:58:27.253Z,1.60
2023-04-02T02:01:02.536Z,1.60
2023-04-02T02:03:30.833Z,1.60
2023-04-02T02:05:59.626Z,1.55
2023-04-02T02:08:34.396Z,1.63
2023-04-02T02:11:03.176Z,1.60
2023-04-02T02:13:31.862Z,1.70
2023-04-02T02:16:04.348Z,1.65
2023-04-02T02:18:31.677Z,1.50
2023-04-02T02:21:01.090Z,1.90
2023-04-02T02:25:56.794Z,1.45
2023-04-02T02:28:27.522Z,1.58
2023-04-02T02:31:01.522Z,1.50
2023-04-02T02:33:34.812Z,1.65
2023-04-02T02:36:05.469Z,1.75
2023-04-02T02:38:41.195Z,1.70
2023-04-02T02:41:16.623Z,1.83
2023-04-02T02:43:53.184Z,1.75
2023-04-02T02:46:24.014Z,1.85
2023-04-02T02:48:54.470Z,1.83
2023-04-02T02:51:27.891Z,1.60
2023-04-02T02:54:01.464Z,1.88
2023-04-02T02:56:31.852Z,1.70
2023-04-02T02:59:00.307Z,1.70
2023-04-02T03:01:29.234Z,1.52
2023-04-02T03:03:58.152Z,1.80
2023-04-02T03:06:25.517Z,1.48
2023-04-02T03:09:02.443Z,2.20
2023-04-02T03:11:38.600Z,1.85
2023-04-02T03:14:16.937Z,1.75
2023-04-02T03:16:47.419Z,1.90
2023-04-02T03:19:29.619Z,2.10
2023-04-02T03:22:03.058Z,1.83
2023-04-02T03:24:36.389Z,1.95
2023-04-02T03:27:11.827Z,2.40
2023-04-02T03:29:43.648Z,2.08
2023-04-02T03:32:17.328Z,2.15
2023-04-02T03:34:50.920Z,2.20
2023-04-02T03:37:22.649Z,2.30
2023-04-02T03:39:56.791Z,2.13
2023-04-02T03:42:26.133Z,2.05
2023-04-02T03:44:58.683Z,2.78
2023-04-02T03:47:34.352Z,2.40
2023-04-02T03:50:07.606Z,2.63
2023-04-02T03:52:36.905Z,2.10
2023-04-02T03:55:15.966Z,2.15
2023-04-02T03:57:51.895Z,2.37
2023-04-02T04:00:26.444Z,2.28
2023-04-02T04:02:59.179Z,2.22
2023-04-02T04:05:30.348Z,2.40
2023-04-02T04:08:02.472Z,2.60
2023-04-02T04:10:31.870Z,2.20
2023-04-02T04:15:34.582Z,2.60
2023-04-02T04:18:10.463Z,2.20
2023-04-02T04:20:47.419Z,2.50
2023-04-02T04:23:20.017Z,1.98
2023-04-02T04:25:50.609Z,2.72
2023-04-02T04:28:26.713Z,2.50
2023-04-02T04:31:00.106Z,2.70
2023-04-02T04:33:34.605Z,2.97
2023-04-02T04:36:03.881Z,3.47
2023-04-02T04:38:33.977Z,3.33
2023-04-02T04:41:11.173Z,3.78
2023-04-02T04:43:46.663Z,3.50
2023-04-02T04:46:18.317Z,3.55
2023-04-02T04:48:52.155Z,3.70
2023-04-02T04:51:25.324Z,2.80
2023-04-02T04:53:55.333Z,3.05
2023-04-02T04:56:26.680Z,3.70
2023-04-02T04:58:58.253Z,3.88
2023-04-02T05:01:33.539Z,4.82
2023-04-02T05:04:09.280Z,6.75
2023-04-02T05:06:42.923Z,6.93
2023-04-02T05:09:16.946Z,7.90
2023-04-02T05:11:47.307Z,10.27
2023-04-02T05:14:23.756Z,5.78
2023-04-02T05:16:56.792Z,4.30
2023-04-02T05:19:28.058Z,2.67
2023-04-02T05:22:03.669Z,2.40
2023-04-02T05:24:42.160Z,2.50
2023-04-02T05:27:20.048Z,2.58
2023-04-02T05:29:52.863Z,2.25
2023-04-02T05:32:24.010Z,2.35
2023-04-02T05:34:55.054Z,4.82
2023-04-02T05:37:26.398Z,2.75
2023-04-02T05:39:56.587Z,2.63
2023-04-02T05:42:27.088Z,2.63
2023-04-02T05:45:08.528Z,2.70
2023-04-02T05:47:41.148Z,2.80
2023-04-02T05:50:20.495Z,2.72
2023-04-02T05:52:54.765Z,3.53
2023-04-02T05:55:40.075Z,3.70
2023-04-02T05:58:34.695Z,3.10
2023-04-02T06:01:12.508Z,2.55
2023-04-02T06:03:48.996Z,2.33
2023-04-02T06:06:22.921Z,2.72
2023-04-02T06:08:58.399Z,2.30
2023-04-02T06:11:30.838Z,2.55
2023-04-02T06:13:58.790Z,2.25
2023-04-02T06:16:30.966Z,2.10
2023-04-02T06:18:58.684Z,2.10
2023-04-02T06:21:26.781Z,1.92
2023-04-02T06:23:59.050Z,2.38
2023-04-02T06:26:29.907Z,2.25
2023-04-02T06:29:04.442Z,2.55
2023-04-02T06:31:38.438Z,3.80
2023-04-02T06:34:11.519Z,3.88
2023-04-02T06:36:38.624Z,4.00
2023-04-02T06:39:14.619Z,2.75
2023-04-02T06:41:41.561Z,2.63
2023-04-02T06:44:14.736Z,2.50
2023-04-02T06:46:47.021Z,2.10
2023-04-02T06:49:21.153Z,2.00
2023-04-02T06:51:53.062Z,2.20
2023-04-02T06:54:22.230Z,2.47
2023-04-02T06:56:51.496Z,2.10
2023-04-02T06:59:19.485Z,2.17
2023-04-02T07:01:54.181Z,2.08
2023-04-02T07:04:22.914Z,2.20
2023-04-02T07:06:51.250Z,2.05
2023-04-02T07:09:19.114Z,2.00
2023-04-02T07:11:48.601Z,2.10
2023-04-02T07:14:16.569Z,2.08
2023-04-02T07:16:44.678Z,3.00
2023-04-02T07:19:18.081Z,2.40
2023-04-02T07:21:45.451Z,2.35
2023-04-02T07:24:12.803Z,1.98
2023-04-02T07:26:40.246Z,2.75
2023-04-02T07:29:13.577Z,2.10
2023-04-02T07:31:40.979Z,2.10
2023-04-02T07:34:09.412Z,2.05
2023-04-02T07:36:36.521Z,2.30
2023-04-02T07:39:04.353Z,2.03
2023-04-02T07:41:31.443Z,2.35
2023-04-02T07:43:58.668Z,2.33
2023-04-02T07:46:27.108Z,1.98
2023-04-02T07:48:54.509Z,2.42
2023-04-02T07:51:23.508Z,2.30
2023-04-02T07:53:55.028Z,2.17
2023-04-02T07:56:23.646Z,2.33
2023-04-02T08:01:19.992Z,2.40
2023-04-02T08:03:49.778Z,2.17
2023-04-02T08:06:17.754Z,2.40
2023-04-02T08:08:45.279Z,2.72
2023-04-02T08:11:12.301Z,2.35
2023-04-02T08:13:39.852Z,2.50
2023-04-02T08:16:07.665Z,3.45
2023-04-02T08:18:35.805Z,3.30
2023-04-02T08:21:06.799Z,3.05
2023-04-02T08:23:35.133Z,2.80
2023-04-02T08:26:02.464Z,2.80
2023-04-02T08:28:30.160Z,2.80
2023-04-02T08:30:57.294Z,2.58
2023-04-02T08:33:25.147Z,2.60
2023-04-02T08:35:52.107Z,3.00
2023-04-02T08:38:23.004Z,2.53
2023-04-02T08:40:52.185Z,2.60
2023-04-02T08:43:38.837Z,2.50
2023-04-02T08:46:14.637Z,2.70
2023-04-02T08:48:46.027Z,2.83
2023-04-02T08:51:22.004Z,2.97
2023-04-02T08:53:53.431Z,2.80
2023-04-02T08:56:27.225Z,2.92
2023-04-02T08:58:57.894Z,2.97
2023-04-02T09:01:36.188Z,2.22
2023-04-02T09:04:07.186Z,2.45
2023-04-02T09:06:34.771Z,2.80
2023-04-02T09:09:05.007Z,2.40
2023-04-02T09:11:41.697Z,2.30
2023-04-02T09:14:17.657Z,2.33
2023-04-02T09:16:51.561Z,2.30
2023-04-02T09:19:24.240Z,2.53
2023-04-02T09:22:06.442Z,2.55
2023-04-02T09:24:41.297Z,2.00
2023-04-02T09:27:20.937Z,2.33
2023-04-02T09:29:51.957Z,2.03
2023-04-02T09:32:27.830Z,2.28
2023-04-02T09:35:15.001Z,2.85
2023-04-02T09:38:11.865Z,2.30
2023-04-02T09:40:46.828Z,2.15
2023-04-02T09:43:16.051Z,2.42
2023-04-02T09:45:55.426Z,2.25
2023-04-02T09:48:26.168Z,2.70
2023-04-02T09:51:11.522Z,2.55
2023-04-02T09:53:44.578Z,2.40
2023-04-02T09:56:16.921Z,2.70
2023-04-02T09:58:45.306Z,2.70
2023-04-02T10:01:30.668Z,2.55
2023-04-02T10:03:59.249Z,2.30
2023-04-02T10:06:28.652Z,2.08
2023-04-02T10:08:56.468Z,2.35
2023-04-02T10:11:36.454Z,2.67
2023-04-02T10:14:12.033Z,2.42
2023-04-02T10:16:42.339Z,2.75
2023-04-02T10:19:16.939Z,3.13
2023-04-02T10:21:45.683Z,4.50
2023-04-02T10:24:14.503Z,2.40
2023-04-02T10:26:53.688Z,2.70
2023-04-02T10:30:02.793Z,2.38
2023-04-02T10:32:38.217Z,2.30
2023-04-02T10:35:16.551Z,2.40
2023-04-02T10:38:32.717Z,3.42
2023-04-02T10:41:04.812Z,3.05
2023-04-02T10:44:12.726Z,2.60
2023-04-02T10:47:00.297Z,2.67
2023-04-02T10:56:23.093Z,1.95
2023-04-02T10:59:15.806Z,2.00
2023-04-02T11:01:47.734Z,2.28
2023-04-02T11:04:22.073Z,3.55
2023-04-02T11:07:03.509Z,2.35
2023-04-02T11:09:43.814Z,2.60
2023-04-02T11:12:25.531Z,2.67
2023-04-02T11:14:56.235Z,2.72
2023-04-02T11:17:24.658Z,3.00
2023-04-02T11:19:52.923Z,2.70
2023-04-02T11:22:22.933Z,2.88
2023-04-02T11:24:56.826Z,2.50
2023-04-02T11:27:27.354Z,2.20
2023-04-02T11:30:04.092Z,2.72
2023-04-02T11:32:39.465Z,2.22
2023-04-02T11:35:37.307Z,2.30
2023-04-02T11:38:52.222Z,2.10
2023-04-02T11:41:57.524Z,1.85
2023-04-02T11:44:28.019Z,1.95
2023-04-02T11:47:16.255Z,2.00
2023-04-02T11:50:25.022Z,2.40
2023-04-02T11:52:54.634Z,2.08
2023-04-02T11:55:29.767Z,2.47
2023-04-02T11:58:38.054Z,2.38
2023-04-02T12:01:38.462Z,2.40
2023-04-02T12:04:40.135Z,2.28
2023-04-02T12:07:26.848Z,2.10
2023-04-02T12:09:57.982Z,2.13
2023-04-02T12:12:28.932Z,1.70
2023-04-02T12:14:57.678Z,2.15
2023-04-02T12:17:29.324Z,2.10
2023-04-02T12:20:01.923Z,2.20
2023-04-02T12:22:32.356Z,1.95
2023-04-02T12:25:05.285Z,2.45
2023-04-02T12:27:32.219Z,1.77
2023-04-02T12:30:12.927Z,2.08
2023-04-02T12:32:40.155Z,2.50
2023-04-02T12:35:27.957Z,2.70
2023-04-02T12:37:55.084Z,2.20
2023-04-02T12:40:22.826Z,2.10
2023-04-02T12:42:54.125Z,2.30
2023-04-02T12:45:23.706Z,2.33
2023-04-02T12:47:53.404Z,1.92
2023-04-02T12:50:23.193Z,2.13
2023-04-02T12:52:53.428Z,1.88
2023-04-02T12:55:24.334Z,2.15
2023-04-02T12:57:56.091Z,2.10
2023-04-02T13:00:36.202Z,2.13
2023-04-02T13:03:28.548Z,2.40
2023-04-02T13:05:58.061Z,2.38
2023-04-02T13:08:28.196Z,2.25
2023-04-02T13:10:58.087Z,2.00
2023-04-02T13:13:35.265Z,2.15
2023-04-02T13:16:09.695Z,2.05
2023-04-02T13:18:39.264Z,2.03
2023-04-02T13:21:27.673Z,2.25
2023-04-02T13:26:28.328Z,2.10
2023-04-02T13:28:57.336Z,1.90
2023-04-02T13:31:24.938Z,2.08
2023-04-02T13:33:52.061Z,2.15
2023-04-02T13:36:21.156Z,2.10
2023-04-02T13:41:22.358Z,1.80
2023-04-02T13:44:00.062Z,1.60
2023-04-02T13:46:31.580Z,1.48
2023-04-02T13:48:59.013Z,1.40
2023-04-02T13:51:36.228Z,1.50
2023-04-02T13:54:09.345Z,1.40
2023-04-02T13:56:37.213Z,1.48
2023-04-02T13:59:05.566Z,1.60
2023-04-02T14:01:33.197Z,1.60
2023-04-02T14:04:01.745Z,1.63
2023-04-02T14:06:49.335Z,3.10
2023-04-02T14:09:27.030Z,1.90
2023-04-02T14:12:01.296Z,1.57
2023-04-02T14:14:45.527Z,1.60
2023-04-02T14:17:24.765Z,1.58
2023-04-02T14:20:10.845Z,1.40
2023-04-02T14:22:52.339Z,1.35
2023-04-02T14:25:26.315Z,1.27
2023-04-02T14:28:03.095Z,1.70
2023-04-02T14:30:43.067Z,1.55
2023-04-02T14:33:20.363Z,1.35
2023-04-02T14:35:53.149Z,1.60
2023-04-02T14:38:29.872Z,1.75
2023-04-02T14:41:05.637Z,1.70
2023-04-02T14:43:43.723Z,1.27
2023-04-02T14:46:11.662Z,1.00
2023-04-02T14:48:48.124Z,1.00
2023-04-02T14:51:25.372Z,1.35
2023-04-02T14:54:06.443Z,1.40
2023-04-02T14:56:39.760Z,1.50
2023-04-02T14:59:23.469Z,1.92
2023-04-02T15:01:57.566Z,2.20
2023-04-02T15:10:29.571Z,1.30
2023-04-02T15:12:58.601Z,1.50
2023-04-02T15:15:40.297Z,1.50
2023-04-02T15:18:13.170Z,1.00
2023-04-02T15:20:48.475Z,2.40
2023-04-02T15:23:23.364Z,2.80
2023-04-02T15:26:02.533Z,4.55
2023-04-02T15:28:35.664Z,2.50
2023-04-02T15:31:11.876Z,1.10
2023-04-02T15:33:45.933Z,3.55
2023-04-02T15:36:44.319Z,1.95
2023-04-02T15:42:04.582Z,1.02
2023-04-02T15:44:33.826Z,1.90
2023-04-02T15:49:41.760Z,0.93
2023-04-02T15:52:13.274Z,0.90
2023-04-02T15:54:55.926Z,1.02
2023-04-02T15:57:45.862Z,1.13
2023-04-02T16:00:23.001Z,1.50
2023-04-02T16:03:18.748Z,3.58
2023-04-02T16:05:56.731Z,1.17
2023-04-02T16:08:37.275Z,1.38
2023-04-02T16:11:10.900Z,1.10
2023-04-02T16:13:40.623Z,1.13
2023-04-02T16:16:11.332Z,1.50
2023-04-02T16:18:46.515Z,0.98
2023-04-02T16:21:18.686Z,1.30
2023-04-02T16:23:45.982Z,1.20
2023-04-02T16:26:41.546Z,1.40
2023-04-02T16:29:23.569Z,1.23
2023-04-02T16:31:58.587Z,1.17
2023-04-02T16:34:36.280Z,1.30
2023-04-02T16:37:16.563Z,1.50
2023-04-02T16:39:54.447Z,1.27
2023-04-02T16:42:34.144Z,1.25
2023-04-02T16:45:24.115Z,1.00
2023-04-02T16:48:03.274Z,1.38
2023-04-02T16:50:38.742Z,1.20
2023-04-02T16:53:21.105Z,1.17
2023-04-02T16:56:12.219Z,1.40
2023-04-02T16:58:52.179Z,1.20
2023-04-02T17:01:28.078Z,1.30
2023-04-02T17:04:30.929Z,1.27
2023-04-02T17:07:05.860Z,1.30
2023-04-02T17:09:43.167Z,1.30
2023-04-02T17:12:16.513Z,1.60
2023-04-02T17:14:50.912Z,1.42
2023-04-02T17:17:21.363Z,1.50
2023-04-02T17:19:52.095Z,1.45
2023-04-02T17:22:21.750Z,1.70
2023-04-02T17:24:53.905Z,1.98
2023-04-02T17:27:28.181Z,1.92
2023-04-02T17:30:00.181Z,1.58
2023-04-02T17:32:32.517Z,1.95
2023-04-02T17:35:17.099Z,2.22
2023-04-02T17:37:51.929Z,2.08
2023-04-02T17:40:28.000Z,2.15
2023-04-02T17:43:04.712Z,2.40
2023-04-02T17:45:42.358Z,2.50
2023-04-02T17:48:19.394Z,2.97
2023-04-02T17:51:11.014Z,2.50
2023-04-02T17:53:47.412Z,2.70
2023-04-02T17:56:46.247Z,3.03
2023-04-02T17:59:26.368Z,2.55
2023-04-02T18:02:02.668Z,2.97
2023-04-02T18:04:41.653Z,3.15
2023-04-02T18:07:24.498Z,3.38
2023-04-02T18:10:02.167Z,3.05
2023-04-02T18:12:44.014Z,2.60
2023-04-02T18:15:35.797Z,2.70
2023-04-02T18:18:10.848Z,2.47
2023-04-02T18:20:43.608Z,2.78
2023-04-02T18:23:21.711Z,2.17
2023-04-02T18:25:59.654Z,2.92
2023-04-02T18:28:43.888Z,3.15
2023-04-02T18:31:20.293Z,3.80
2023-04-02T18:34:41.975Z,3.25
2023-04-02T18:37:22.992Z,2.72
2023-04-02T18:40:18.213Z,2.42
2023-04-02T18:42:55.132Z,3.17
2023-04-02T18:45:31.277Z,2.30
2023-04-02T18:48:09.160Z,3.30
2023-04-02T18:50:39.395Z,2.60
2023-04-02T18:53:14.365Z,2.40
2023-04-02T18:55:46.547Z,2.95
2023-04-02T18:58:19.266Z,2.70
2023-04-02T19:00:48.140Z,2.35
2023-04-02T19:03:22.604Z,2.72
2023-04-02T19:05:55.689Z,2.95
2023-04-02T19:08:30.614Z,3.85
2023-04-02T19:11:00.579Z,4.00
2023-04-02T19:13:27.645Z,4.40
2023-04-02T19:16:30.136Z,3.17
2023-04-02T19:19:07.339Z,2.70
2023-04-02T19:21:44.342Z,2.75
2023-04-02T19:24:28.460Z,2.50
2023-04-02T19:27:01.003Z,3.47
2023-04-02T19:29:39.420Z,3.42
2023-04-02T19:32:14.938Z,3.05
2023-04-02T19:34:49.197Z,3.35
2023-04-02T19:37:25.328Z,2.83
2023-04-02T19:40:18.326Z,2.30
2023-04-02T19:42:48.154Z,1.98
2023-04-02T19:45:29.602Z,1.70
2023-04-02T19:47:59.840Z,2.08
2023-04-02T19:50:27.219Z,1.80
2023-04-02T19:52:54.954Z,1.85
2023-04-02T19:55:23.321Z,1.90
2023-04-02T19:57:52.629Z,1.77
2023-04-02T20:00:21.634Z,1.92
2023-04-02T20:02:48.929Z,2.00
2023-04-02T20:05:16.265Z,1.90
2023-04-02T20:07:43.615Z,1.70
2023-04-02T20:10:11.140Z,2.00
2023-04-02T20:12:40.206Z,1.95
2023-04-02T20:15:08.433Z,1.67
2023-04-02T20:17:35.715Z,2.00
2023-04-02T20:20:02.913Z,2.13
2023-04-02T20:22:31.533Z,2.40
2023-04-02T20:24:58.769Z,3.08
2023-04-02T20:27:26.330Z,3.10
2023-04-02T20:29:54.555Z,3.28
2023-04-02T20:32:22.729Z,2.83
2023-04-02T20:34:49.892Z,2.87
2023-04-02T20:37:17.234Z,2.53
2023-04-02T20:39:44.135Z,2.10
2023-04-02T20:42:11.698Z,2.00
2023-04-02T20:44:38.626Z,2.20
2023-04-02T20:47:08.172Z,1.92
2023-04-02T20:49:35.299Z,2.08
2023-04-02T20:52:02.451Z,1.92
2023-04-02T20:54:29.638Z,2.00
2023-04-02T20:56:56.970Z,2.40
2023-04-02T20:59:24.157Z,2.00
2023-04-02T21:01:51.443Z,2.35
2023-04-02T21:04:20.511Z,2.10
2023-04-02T21:06:48.763Z,2.25
2023-04-02T21:09:17.914Z,2.35
2023-04-02T21:11:45.599Z,3.05
2023-04-02T21:14:13.693Z,2.72
2023-04-02T21:16:44.224Z,3.10
2023-04-02T21:19:11.749Z,3.10
2023-04-02T21:21:40.859Z,3.95
2023-04-02T21:24:09.385Z,3.70
2023-04-02T21:26:38.496Z,2.90
2023-04-02T21:29:06.281Z,3.63
2023-04-02T21:31:35.659Z,3.78
2023-04-02T21:34:03.316Z,3.70
2023-04-02T21:36:32.481Z,3.67
2023-04-02T21:39:02.267Z,3.42
2023-04-02T21:41:31.330Z,3.47
2023-04-02T21:44:04.706Z,2.92
2023-04-02T21:46:34.833Z,2.53
2023-04-02T21:49:02.363Z,2.38
2023-04-02T21:51:31.207Z,2.33
2023-04-02T21:54:00.329Z,2.22
2023-04-02T21:56:29.594Z,2.22
2023-04-02T22:01:29.358Z,2.72
2023-04-02T22:03:58.591Z,3.38
2023-04-02T22:06:28.491Z,2.70
2023-04-02T22:08:57.166Z,1.88
2023-04-02T22:13:54.020Z,2.47
2023-04-02T22:16:22.546Z,2.30
2023-04-02T22:18:50.807Z,2.40
2023-04-02T22:21:19.109Z,2.20
2023-04-02T22:23:46.711Z,2.47
2023-04-02T22:26:16.000Z,2.50
2023-04-02T22:28:44.836Z,2.90
2023-04-02T22:33:41.275Z,2.00
2023-04-02T22:36:09.005Z,2.35
2023-04-02T22:38:36.758Z,2.78
2023-04-02T22:41:08.063Z,3.05
2023-04-02T22:43:36.459Z,3.65
2023-04-02T22:46:06.536Z,2.72
2023-04-02T22:48:33.978Z,3.00
2023-04-02T22:51:01.385Z,3.22
2023-04-02T22:53:28.593Z,2.25
2023-04-02T22:55:55.816Z,2.65
2023-04-02T22:58:23.852Z,2.53
2023-04-02T23:00:51.253Z,2.88
2023-04-02T23:03:22.075Z,3.80
2023-04-02T23:05:58.931Z,2.42
2023-04-02T23:08:25.996Z,2.30
2023-04-02T23:11:00.405Z,2.80
2023-04-02T23:13:27.463Z,1.98
2023-04-02T23:15:55.138Z,2.40
2023-04-02T23:18:23.513Z,2.33
2023-04-02T23:20:50.778Z,2.50
2023-04-02T23:23:17.821Z,2.92
2023-04-02T23:25:45.378Z,2.65
2023-04-02T23:28:13.424Z,2.50
2023-04-02T23:30:41.766Z,2.10
2023-04-02T23:33:09.210Z,2.60
2023-04-02T23:35:38.204Z,3.15
2023-04-02T23:38:05.251Z,2.72
2023-04-02T23:40:32.446Z,2.95
2023-04-02T23:42:59.384Z,3.33
2023-04-02T23:45:26.628Z,3.17
2023-04-02T23:47:53.648Z,3.17
2023-04-02T23:50:21.016Z,3.78
2023-04-02T23:52:49.439Z,3.65
2023-04-02T23:55:16.760Z,3.35
2023-04-02T23:57:43.720Z,3.60
